Time;durP1;ratioP1;P1;durP2;ratioP2;P2;SDS_P1;SDS_P2;PMS_P1;PMS_P2;Temp;Humidity;BMP_temperature;BMP_pressure;BME280_temperature;BME280_humidity;BME280_pressure;Samples;Min_cycle;Max_cycle;Signal;HPM_P1;HPM_P2
2020/12/03 00:00:54;;;;;;;91.00;44.70;;;;;;;-4.67;84.16;99111.95;125257;1098;65153;-86
2020/12/03 00:03:36;;;;;;;98.37;48.77;;;;;;;-4.65;83.95;99115.42;125406;1098;65117;-84
2020/12/03 00:06:15;;;;;;;89.33;45.07;;;;;;;-4.65;83.29;99111.97;125220;1098;65156;-83
2020/12/03 00:08:46;;;;;;;94.90;47.10;;;;;;;-4.71;83.13;99109.40;125355;1098;65261;-84
2020/12/03 00:11:12;;;;;;;92.47;44.63;;;;;;;-4.73;83.21;99104.19;125340;1098;65137;-85
2020/12/03 00:13:39;;;;;;;88.10;44.30;;;;;;;-4.72;83.65;99105.91;125186;1098;65172;-85
2020/12/03 00:16:06;;;;;;;90.47;45.37;;;;;;;-4.76;84.12;99093.81;125226;1098;65197;-83
2020/12/03 00:18:34;;;;;;;84.57;43.27;;;;;;;-4.81;83.46;99092.96;125314;1098;65146;-83
2020/12/03 00:21:05;;;;;;;86.05;44.50;;;;;;;-4.83;84.12;99099.03;125246;1098;65323;-84
2020/12/03 00:23:31;;;;;;;85.13;44.70;;;;;;;-4.87;83.81;99093.85;125332;1098;65141;-84
2020/12/03 00:25:58;;;;;;;90.47;45.03;;;;;;;-4.88;84.03;99093.84;125345;1098;65144;-84
2020/12/03 00:28:30;;;;;;;90.30;45.13;;;;;;;-4.89;83.57;99095.58;125324;1098;65155;-84
2020/12/03 00:30:57;;;;;;;75.90;37.63;;;;;;;-4.92;83.31;99090.41;125308;1098;65303;-83
2020/12/03 00:33:24;;;;;;;85.17;43.10;;;;;;;-4.96;83.58;99093.00;125322;1098;65245;-83
2020/12/03 00:35:52;;;;;;;81.70;40.40;;;;;;;-4.94;84.19;99083.48;125280;1098;65246;-83
2020/12/03 00:38:19;;;;;;;82.10;40.73;;;;;;;-4.90;84.33;99078.27;125282;1099;65236;-83
2020/12/03 00:40:47;;;;;;;86.70;42.37;;;;;;;-4.80;83.88;99062.63;125327;1098;65131;-83
2020/12/03 00:43:15;;;;;;;83.77;42.83;;;;;;;-4.78;83.84;99066.95;125344;1098;65161;-83
2020/12/03 00:45:43;;;;;;;82.10;42.85;;;;;;;-4.83;83.25;99062.64;125308;1098;65316;-84
2020/12/03 00:48:09;;;;;;;71.33;38.30;;;;;;;-4.88;83.70;99068.70;125360;1098;65169;-83
2020/12/03 00:50:36;;;;;;;75.63;37.70;;;;;;;-4.95;83.54;99058.34;125312;1098;65130;-83
2020/12/03 00:53:02;;;;;;;78.10;40.20;;;;;;;-5.02;84.12;99056.66;125304;1098;65194;-83
2020/12/03 00:55:29;;;;;;;79.13;40.43;;;;;;;-5.05;83.24;99054.04;125244;1098;65217;-83
2020/12/03 00:57:55;;;;;;;80.65;39.35;;;;;;;-5.07;83.96;99044.53;125280;1098;65223;-83
2020/12/03 01:00:22;;;;;;;84.80;41.40;;;;;;;-5.07;84.22;99035.88;125316;1098;65271;-85
2020/12/03 01:02:49;;;;;;;83.07;42.63;;;;;;;-5.07;83.69;99036.73;125260;1098;65128;-84
2020/12/03 01:05:16;;;;;;;85.60;42.13;;;;;;;-5.08;84.20;99037.62;125293;1098;65178;-83
2020/12/03 01:07:43;;;;;;;82.70;43.10;;;;;;;-5.11;84.02;99042.83;125448;1098;65155;-84
2020/12/03 01:10:21;;;;;;;88.40;44.20;;;;;;;-5.12;83.62;99035.02;125258;1098;65217;-83
2020/12/03 01:12:49;;;;;;;85.37;44.33;;;;;;;-5.14;83.65;99026.36;125273;1098;65170;-83
2020/12/03 01:15:17;;;;;;;81.47;41.80;;;;;;;-5.15;83.89;99028.11;125370;1098;65149;-83
2020/12/03 01:17:43;;;;;;;80.60;39.70;;;;;;;-5.18;84.22;99016.87;125333;1098;65080;-84
2020/12/03 01:20:13;;;;;;;84.23;42.73;;;;;;;-5.23;84.41;99008.23;125302;1098;65144;-83
2020/12/03 01:22:39;;;;;;;85.05;42.35;;;;;;;-5.30;84.42;99008.23;125307;1098;65236;-84
2020/12/03 01:25:07;;;;;;;91.10;43.83;;;;;;;-5.30;84.66;99010.82;125305;1098;65234;-84
2020/12/03 01:27:34;;;;;;;87.13;41.67;;;;;;;-5.28;84.05;98997.84;125336;1098;65143;-82
2020/12/03 01:30:03;;;;;;;88.37;43.43;;;;;;;-5.26;83.90;99003.91;125219;1098;65060;-83
2020/12/03 01:32:29;;;;;;;88.30;43.05;;;;;;;-5.23;83.96;99003.89;125253;1098;65265;-84
2020/12/03 01:34:55;;;;;;;85.97;43.27;;;;;;;-5.20;84.32;99006.47;125207;1098;65288;-86
2020/12/03 01:37:22;;;;;;;85.60;42.03;;;;;;;-5.18;84.21;99007.34;125420;1098;65271;-84
2020/12/03 01:39:48;;;;;;;81.07;41.50;;;;;;;-5.20;84.29;99001.27;125355;1098;65149;-84
2020/12/03 01:42:15;;;;;;;82.93;40.20;;;;;;;-5.18;84.14;98999.55;125305;1098;65818;-82
2020/12/03 01:44:48;;;;;;;85.60;42.47;;;;;;;-5.16;84.03;98996.92;125271;1098;65124;-83
2020/12/03 01:47:31;;;;;;;84.95;41.90;;;;;;;-5.12;84.52;98996.91;125343;1098;65169;-82
2020/12/03 01:49:58;;;;;;;84.70;43.07;;;;;;;-5.13;83.71;98986.55;125293;1098;65176;-83
2020/12/03 01:52:26;;;;;;;88.40;44.93;;;;;;;-5.14;84.50;98982.20;125281;1098;65592;-83
2020/12/03 01:54:53;;;;;;;80.83;40.50;;;;;;;-5.13;84.18;98964.02;125296;1098;65229;-83
2020/12/03 01:57:41;;;;;;;86.80;43.43;;;;;;;-5.16;84.56;98969.23;125314;1098;65141;-83
2020/12/03 02:00:16;;;;;;;90.47;43.20;;;;;;;-5.14;84.43;98964.87;125191;1098;65179;-84
2020/12/03 02:02:47;;;;;;;89.35;45.05;;;;;;;-5.11;84.42;98964.88;125265;1098;65223;-84
2020/12/03 02:05:22;;;;;;;85.33;44.67;;;;;;;-5.07;83.70;98965.72;125333;1098;65229;-83
2020/12/03 02:07:49;;;;;;;86.77;44.37;;;;;;;-4.98;84.37;98964.80;125266;1098;65191;-84
2020/12/03 02:10:18;;;;;;;91.23;42.73;;;;;;;-4.99;84.02;98963.95;125271;1098;65198;-83
2020/12/03 02:12:45;;;;;;;82.50;47.50;;;;;;;-4.98;84.28;98960.46;125265;1098;65159;-84
2020/12/03 02:15:13;;;;;;;99.43;50.67;;;;;;;-4.94;84.48;98951.79;125241;1098;65143;-84
2020/12/03 02:17:40;;;;;;;93.00;48.23;;;;;;;-4.89;84.00;98955.23;125233;1098;65281;-84
2020/12/03 02:20:18;;;;;;;94.87;50.30;;;;;;;-4.81;84.35;98969.93;125274;1098;65380;-84
2020/12/03 02:22:46;;;;;;;93.50;48.60;;;;;;;-4.72;84.51;98970.72;125268;1098;65478;-84
2020/12/03 02:25:14;;;;;;;97.20;48.53;;;;;;;-4.61;84.52;98956.79;125259;1098;65303;-84
2020/12/03 02:27:41;;;;;;;91.13;47.13;;;;;;;-4.52;83.90;98964.55;125307;1098;65153;-84
2020/12/03 02:30:10;;;;;;;91.60;47.83;;;;;;;-4.49;83.96;98954.97;125294;1098;65181;-84
2020/12/03 02:32:38;;;;;;;97.00;49.13;;;;;;;-4.46;83.45;98957.55;125389;1098;65070;-84
2020/12/03 02:35:07;;;;;;;97.10;48.40;;;;;;;-4.43;83.68;98964.47;125323;1098;65115;-84
2020/12/03 02:37:34;;;;;;;;;;;;;;;-4.41;83.90;98973.13;125361;1098;65133;-83
2020/12/03 02:40:01;;;;;;;94.73;46.57;;;;;;;-4.41;83.39;98960.98;125391;1098;65144;-83
2020/12/03 02:42:28;;;;;;;95.95;47.45;;;;;;;-4.44;83.05;98962.75;125310;1098;65188;-84
2020/12/03 02:44:55;;;;;;;89.53;47.50;;;;;;;-4.47;83.20;98957.58;125369;1098;65120;-83
2020/12/03 02:47:23;;;;;;;100.37;49.20;;;;;;;-4.51;83.63;98948.91;125280;1098;65192;-82
2020/12/03 02:49:51;;;;;;;95.57;46.63;;;;;;;-4.57;83.64;98946.36;125268;1098;65259;-82
2020/12/03 02:52:24;;;;;;;91.57;47.43;;;;;;;-4.61;83.13;98947.25;125279;1098;65156;-82
2020/12/03 02:54:52;;;;;;;92.90;52.50;;;;;;;-4.65;83.60;98937.76;125237;1098;65223;-83
2020/12/03 02:57:20;;;;;;;94.07;52.27;;;;;;;-4.65;83.61;98940.36;125376;1098;65105;-82
2020/12/03 02:59:47;;;;;;;89.53;46.17;;;;;;;-4.62;83.53;98932.53;125315;1098;65143;-83
2020/12/03 03:02:15;;;;;;;96.60;47.50;;;;;;;-4.64;82.98;98932.53;125334;1098;65463;-83
2020/12/03 03:04:42;;;;;;;94.60;48.00;;;;;;;-4.61;83.77;98928.19;125309;1098;65127;-83
2020/12/03 03:07:08;;;;;;;91.87;46.23;;;;;;;-4.61;83.13;98923.84;125293;1098;65154;-83
2020/12/03 03:09:34;;;;;;;90.33;45.17;;;;;;;-4.60;82.89;98914.33;125248;1098;65166;-82
2020/12/03 03:12:01;;;;;;;91.20;46.70;;;;;;;-4.64;83.11;98916.92;125296;1098;65127;-83
2020/12/03 03:14:28;;;;;;;93.95;46.53;;;;;;;-4.64;82.96;98921.27;125301;1098;65217;-84
2020/12/03 03:16:55;;;;;;;93.17;47.93;;;;;;;-4.65;83.07;98924.76;125287;1098;65173;-83
2020/12/03 03:19:22;;;;;;;90.23;46.87;;;;;;;-4.63;83.65;98925.62;125215;1098;65556;-83
2020/12/03 03:21:49;;;;;;;86.97;46.00;;;;;;;-4.54;83.53;98935.08;125224;1099;65166;-84
2020/12/03 03:24:15;;;;;;;89.77;43.93;;;;;;;-4.50;83.33;98944.56;125261;1098;65134;-84
2020/12/03 03:26:43;;;;;;;88.27;44.30;;;;;;;-4.47;83.33;98929.83;125250;1099;65246;-83
2020/12/03 03:29:10;;;;;;;90.00;45.60;;;;;;;-4.43;83.72;98918.50;125232;1098;65262;-83
2020/12/03 03:31:36;;;;;;;97.60;48.00;;;;;;;-4.41;83.69;98905.50;125294;1098;65274;-84
2020/12/03 03:34:03;;;;;;;89.37;44.37;;;;;;;-4.44;82.94;98892.53;125263;1099;65556;-82
2020/12/03 03:36:31;;;;;;;87.23;42.93;;;;;;;-4.50;83.17;98902.95;125233;1098;65219;-83
2020/12/03 03:38:57;;;;;;;91.70;46.93;;;;;;;-4.58;82.93;98897.84;125265;1098;65144;-83
2020/12/03 03:41:24;;;;;;;95.77;48.03;;;;;;;-4.59;83.41;98890.90;125211;1098;65173;-83
2020/12/03 03:43:50;;;;;;;92.20;46.40;;;;;;;-4.65;83.68;98890.95;125230;1098;65153;-83
2020/12/03 03:46:17;;;;;;;92.75;44.60;;;;;;;-4.71;83.44;98886.67;125257;1098;66199;-84
2020/12/03 03:48:43;;;;;;;93.47;45.70;;;;;;;-4.76;83.68;98871.98;125342;1098;65153;-84
2020/12/03 03:51:10;;;;;;;94.00;46.67;;;;;;;-4.79;83.18;98866.78;125271;1098;65350;-85
2020/12/03 03:53:37;;;;;;;90.23;45.87;;;;;;;-4.84;83.29;98856.44;125294;1098;65137;-83
2020/12/03 03:56:04;;;;;;;89.33;45.33;;;;;;;-4.90;83.93;98846.07;125317;1099;65201;-83
2020/12/03 03:58:30;;;;;;;88.05;46.25;;;;;;;-4.92;83.44;98833.11;125246;1098;65245;-85
2020/12/03 04:00:58;;;;;;;87.57;45.07;;;;;;;-4.93;83.52;98826.16;125199;1098;65105;-83
2020/12/03 04:03:25;;;;;;;86.23;44.87;;;;;;;-4.97;84.28;98815.83;125254;1098;65280;-83
2020/12/03 04:05:54;;;;;;;86.73;45.77;;;;;;;-5.01;83.54;98803.72;125272;1098;65236;-84
2020/12/03 04:08:23;;;;;;;85.67;43.23;;;;;;;-5.02;83.87;98812.40;125271;1098;65195;-84
2020/12/03 04:10:50;;;;;;;84.77;44.80;;;;;;;-5.04;84.45;98806.34;125340;1098;65185;-84
2020/12/03 04:13:19;;;;;;;89.40;45.70;;;;;;;-5.07;83.56;98810.68;125342;1098;65150;-84
2020/12/03 04:15:45;;;;;;;89.13;45.60;;;;;;;-5.04;84.42;98798.55;125197;1098;65176;-83
2020/12/03 04:18:12;;;;;;;94.30;48.87;;;;;;;-5.01;83.71;98812.37;125250;1098;65322;-84
2020/12/03 04:20:38;;;;;;;84.93;45.40;;;;;;;-4.99;84.25;98813.23;125236;1099;65182;-83
2020/12/03 04:23:05;;;;;;;90.85;46.70;;;;;;;-4.97;83.65;98828.82;125310;1098;65091;-83
2020/12/03 04:25:32;;;;;;;90.53;46.97;;;;;;;-4.95;83.96;98827.05;125372;1098;65185;-83
2020/12/03 04:27:58;;;;;;;96.80;50.30;;;;;;;-4.90;83.75;98826.17;125282;1098;65210;-83
2020/12/03 04:30:25;;;;;;;89.23;47.33;;;;;;;-4.82;84.46;98825.22;125282;1098;65169;-83
2020/12/03 04:32:51;;;;;;;93.53;46.23;;;;;;;-4.74;84.22;98811.31;125220;1098;65243;-83
2020/12/03 04:35:19;;;;;;;94.27;46.77;;;;;;;-4.71;84.17;98813.88;125274;1098;65123;-83
2020/12/03 04:37:48;;;;;;;93.73;47.83;;;;;;;-4.66;83.46;98795.61;125239;1098;65132;-83
2020/12/03 04:40:26;;;;;;;90.35;45.50;;;;;;;-4.67;83.77;98806.90;125362;1098;65204;-82
2020/12/03 04:42:53;;;;;;;97.93;45.53;;;;;;;-4.72;83.42;98806.94;125325;1098;65156;-82
2020/12/03 04:45:20;;;;;;;88.63;47.20;;;;;;;-4.73;84.04;98791.37;125215;1098;65217;-83
2020/12/03 04:48:02;;;;;;;84.63;45.30;;;;;;;-4.76;83.81;98802.66;125322;1098;65127;-84
2020/12/03 04:50:48;;;;;;;98.90;48.70;;;;;;;-4.75;83.21;98800.91;125248;1098;65147;-83
2020/12/03 04:53:29;;;;;;;92.50;47.50;;;;;;;-4.76;83.13;98792.26;125301;1098;65311;-83
2020/12/03 04:56:11;;;;;;;98.40;48.77;;;;;;;-4.77;83.69;98794.85;125304;1098;65253;-84
2020/12/03 04:58:46;;;;;;;88.73;48.17;;;;;;;-4.77;83.94;98793.11;125294;1098;65211;-84
2020/12/03 05:01:19;;;;;;;98.60;47.70;;;;;;;-4.76;83.22;98783.60;125276;1098;65620;-84
2020/12/03 05:04:04;;;;;;;93.23;46.23;;;;;;;-4.78;84.00;98794.00;125311;1098;65232;-84
2020/12/03 05:06:36;;;;;;;99.30;50.27;;;;;;;-4.75;83.33;98803.51;125307;1098;65136;-84
2020/12/03 05:09:05;;;;;;;98.97;48.87;;;;;;;-4.74;83.33;98805.22;125280;1098;65592;-84
2020/12/03 05:11:42;;;;;;;95.60;48.80;;;;;;;-4.70;83.91;98792.19;125365;1098;65169;-84
2020/12/03 05:14:33;;;;;;;95.60;46.97;;;;;;;-4.69;83.40;98780.91;125227;1098;65192;-84
2020/12/03 05:17:30;;;;;;;93.33;49.13;;;;;;;-4.67;83.44;98780.91;125304;1098;65127;-84
2020/12/03 05:20:18;;;;;;;95.77;49.77;;;;;;;-4.62;83.95;98780.87;125262;1098;65288;-84
2020/12/03 05:22:55;;;;;;;97.90;51.43;;;;;;;-4.59;83.32;98767.83;125297;1098;65194;-84
2020/12/03 05:25:24;;;;;;;102.20;49.40;;;;;;;-4.59;82.98;98763.48;125257;1098;65255;-84
2020/12/03 05:28:01;;;;;;;95.35;48.17;;;;;;;-4.58;83.11;98779.95;125391;1098;65542;-85
2020/12/03 05:30:28;;;;;;;99.30;49.57;;;;;;;-4.58;83.85;98783.44;125300;1098;65672;-84
2020/12/03 05:32:55;;;;;;;95.27;47.60;;;;;;;-4.54;83.70;98771.25;125241;1098;65133;-84
2020/12/03 05:35:21;;;;;;;103.40;50.73;;;;;;;-4.57;83.59;98773.89;125287;1098;65207;-82
2020/12/03 05:37:48;;;;;;;92.80;48.33;;;;;;;-4.67;83.09;98781.76;125279;1098;65133;-83
2020/12/03 05:40:32;;;;;;;95.10;49.50;;;;;;;-4.67;82.99;98784.36;125351;1098;65179;-83
2020/12/03 05:43:00;;;;;;;102.87;49.00;;;;;;;-4.60;83.44;98769.58;125291;1098;65157;-84
2020/12/03 05:45:31;;;;;;;95.63;48.63;;;;;;;-4.59;83.54;98760.89;125331;1098;65144;-83
2020/12/03 05:47:58;;;;;;;93.25;45.90;;;;;;;-4.63;83.18;98754.02;125300;1098;65598;-83
2020/12/03 05:50:39;;;;;;;92.30;47.73;;;;;;;-4.64;83.25;98760.07;125284;1098;65159;-84
2020/12/03 05:53:08;;;;;;;93.60;45.43;;;;;;;-4.66;82.79;98756.61;125357;1098;65138;-83
2020/12/03 05:55:35;;;;;;;103.00;50.65;;;;;;;-4.65;83.45;98767.02;125375;1098;65152;-83
2020/12/03 05:58:23;;;;;;;103.93;51.00;;;;;;;-4.61;82.93;98753.98;125212;1098;65404;-83
2020/12/03 06:00:51;;;;;;;102.00;50.00;;;;;;;-4.58;83.14;98751.34;125283;1098;65218;-85
2020/12/03 06:03:37;;;;;;;99.00;50.63;;;;;;;-4.62;83.02;98741.87;125280;1098;65284;-83
2020/12/03 06:06:25;;;;;;;101.70;48.67;;;;;;;-4.65;83.34;98730.61;125279;1098;65145;-83
2020/12/03 06:09:17;;;;;;;104.97;50.90;;;;;;;-4.67;83.03;98723.70;125334;1098;65093;-83
2020/12/03 06:12:08;;;;;;;108.57;52.50;;;;;;;-4.76;83.60;98719.47;125347;1098;65236;-83
2020/12/03 06:14:50;;;;;;;98.97;49.47;;;;;;;-4.82;83.71;98716.05;125338;1098;65149;-83
2020/12/03 06:17:43;;;;;;;109.35;52.40;;;;;;;-4.85;83.27;98715.20;125373;1098;65093;-84
2020/12/03 06:20:47;;;;;;;112.80;55.40;;;;;;;-4.80;83.47;98729.91;125304;1098;65168;-84
2020/12/03 06:23:19;;;;;;;111.07;54.40;;;;;;;-4.78;84.14;98731.61;125196;1098;65166;-84
2020/12/03 06:25:55;;;;;;;105.83;53.63;;;;;;;-4.73;83.52;98731.58;125333;1098;65149;-84
2020/12/03 06:35:13;;;;;;;112.83;56.53;;;;;;;-4.57;83.08;98724.48;124914;1098;65181;-83
2020/12/03 06:37:47;;;;;;;115.23;54.13;;;;;;;-4.52;83.46;98728.75;125374;1098;65201;-84
2020/12/03 06:40:24;;;;;;;109.83;51.73;;;;;;;-4.48;83.50;98720.02;125278;1098;65162;-84
2020/12/03 06:43:09;;;;;;;121.37;58.17;;;;;;;-4.47;83.77;98720.91;125158;1098;65133;-85
2020/12/03 06:45:46;;;;;;;110.95;54.15;;;;;;;-4.50;83.35;98713.11;125373;1098;65133;-83
2020/12/03 06:48:51;;;;;;;113.00;56.55;;;;;;;-4.54;83.04;98706.24;125220;1098;65194;-83
2020/12/03 06:51:45;;;;;;;111.93;53.17;;;;;;;-4.56;82.54;98684.59;125299;1098;65240;-84
2020/12/03 06:54:42;;;;;;;108.50;52.63;;;;;;;-4.67;82.26;98682.97;125345;1098;65338;-84
2020/12/03 06:57:30;;;;;;;110.30;54.33;;;;;;;-4.68;82.13;98696.00;125309;1098;65130;-84
2020/12/03 07:00:15;;;;;;;109.37;53.10;;;;;;;-4.72;82.31;98692.55;125309;1098;65179;-84
2020/12/03 07:02:50;;;;;;;109.70;54.43;;;;;;;-4.73;82.05;98696.04;125362;1098;65582;-85
2020/12/03 07:05:45;;;;;;;103.50;54.17;;;;;;;-4.69;82.23;98702.91;125361;1098;65168;-84
2020/12/03 07:08:41;;;;;;;104.63;54.93;;;;;;;-4.61;82.61;98704.58;125311;1098;65179;-84
2020/12/03 07:11:36;;;;;;;121.37;57.77;;;;;;;-4.56;82.81;98707.98;125222;1098;65246;-84
2020/12/03 07:14:24;;;;;;;112.90;54.80;;;;;;;-4.48;82.81;98704.42;125340;1098;65140;-84
2020/12/03 07:17:12;;;;;;;106.37;54.53;;;;;;;-4.39;82.51;98708.67;125332;1098;65106;-84
2020/12/03 07:20:10;;;;;;;105.93;53.27;;;;;;;-4.35;81.55;98705.14;125357;1098;65203;-84
2020/12/03 07:22:42;;;;;;;110.10;58.23;;;;;;;-4.36;81.79;98708.63;125323;1098;65265;-84
2020/12/03 07:25:11;;;;;;;105.33;56.13;;;;;;;-4.37;81.67;98708.64;125699;1098;65117;-82
2020/12/03 07:27:57;;;;;;;108.37;56.73;;;;;;;-4.41;81.99;98710.42;125389;1098;65236;-87
2020/12/03 07:30:40;;;;;;;105.23;55.17;;;;;;;-4.36;82.21;98700.83;125451;1098;65611;-90
2020/12/03 07:36:20;;;;;;;95.17;54.57;;;;;;;-4.24;81.64;98702.41;128316;1092;62716;-88
2020/12/03 07:39:11;;;;;;;99.60;52.53;;;;;;;-4.14;81.57;98695.36;125565;1098;65188;-87
2020/12/03 07:41:53;;;;;;;105.67;55.63;;;;;;;-4.05;81.96;98692.66;125416;1100;65130;-87
2020/12/03 07:44:34;;;;;;;108.00;56.43;;;;;;;-3.92;81.42;98694.21;124945;1100;65032;-88
2020/12/03 07:47:20;;;;;;;107.87;56.67;;;;;;;-3.77;81.87;98686.16;125428;1098;65147;-88
2020/12/03 07:49:52;;;;;;;105.57;56.30;;;;;;;-3.61;81.46;98680.73;125379;1099;65147;-88
2020/12/03 07:52:28;;;;;;;107.20;57.13;;;;;;;-3.55;81.19;98670.24;125262;1099;65077;-87
2020/12/03 07:55:20;;;;;;;99.63;53.60;;;;;;;-3.54;80.52;98678.02;125271;1098;65140;-88
2020/12/03 07:57:54;;;;;;;97.13;52.43;;;;;;;-3.58;80.68;98685.89;125336;1098;65172;-88
2020/12/03 08:00:27;;;;;;;99.20;55.10;;;;;;;-3.57;80.33;98685.02;125287;1098;65092;-88
2020/12/03 08:02:59;;;;;;;101.37;56.20;;;;;;;-3.57;80.32;98682.42;125289;1099;65190;-86
2020/12/03 08:05:38;;;;;;;103.70;56.93;;;;;;;-3.48;80.65;98684.87;125280;1098;65150;-87
2020/12/03 08:08:06;;;;;;;102.87;55.77;;;;;;;-3.46;80.06;98675.30;125370;1099;65624;-87
2020/12/03 08:10:41;;;;;;;97.87;54.40;;;;;;;-3.47;79.98;98673.59;125332;1098;65198;-87
2020/12/03 08:13:39;;;;;;;99.40;54.50;;;;;;;-3.53;79.08;98673.66;125323;1098;65147;-87
2020/12/03 08:16:11;;;;;;;112.10;55.90;;;;;;;-3.59;79.72;98666.80;125217;1098;65226;-87
2020/12/03 08:19:06;;;;;;;102.55;56.70;;;;;;;-3.56;79.62;98669.36;125263;1098;65143;-87
2020/12/03 08:21:39;;;;;;;95.17;55.80;;;;;;;-3.50;80.14;98672.75;125107;1098;65076;-87
2020/12/03 08:24:15;;;;;;;106.30;55.25;;;;;;;-3.42;79.65;98681.30;124931;1098;65154;-88
2020/12/03 08:26:42;;;;;;;100.63;56.43;;;;;;;-3.39;79.53;98679.53;124960;1099;65265;-88
2020/12/03 08:29:38;;;;;;;100.20;56.17;;;;;;;-3.43;78.84;98666.57;125308;1098;65238;-87
2020/12/03 08:36:01;;;;;;;103.97;55.87;;;;;;;-3.45;79.95;98673.55;125362;1098;65178;-86
2020/12/03 08:38:32;;;;;;;106.50;58.70;;;;;;;-3.39;80.05;98663.05;125323;1098;65223;-87
2020/12/03 08:41:07;;;;;;;106.20;58.83;;;;;;;-3.27;79.78;98655.00;125353;1099;65245;-87
2020/12/03 08:43:43;;;;;;;112.47;64.70;;;;;;;-3.11;79.74;98669.52;125358;1098;65220;-87
2020/12/03 08:46:18;;;;;;;107.63;57.93;;;;;;;-3.00;79.18;98658.02;124927;1099;65194;-87
2020/12/03 08:55:31;;;;;;;107.53;56.87;;;;;;;-2.90;79.47;98657.86;125275;1098;65112;-87
2020/12/03 08:57:59;;;;;;;111.70;58.63;;;;;;;-2.91;79.51;98653.50;124938;1098;65240;-87
2020/12/03 09:00:27;;;;;;;100.47;58.90;;;;;;;-2.84;79.59;98662.09;125339;1098;65261;-87
2020/12/03 09:02:54;;;;;;;103.80;61.70;;;;;;;-2.79;80.20;98654.16;125397;1098;65243;-88
2020/12/03 09:05:21;;;;;;;103.50;56.45;;;;;;;-2.82;79.08;98651.61;125358;1098;65188;-87
2020/12/03 09:07:52;;;;;;;106.30;58.77;;;;;;;-2.87;79.78;98656.91;125573;1098;65131;-87
2020/12/03 09:10:21;;;;;;;110.03;57.53;;;;;;;-2.81;79.50;98662.03;125925;1098;65201;-87
2020/12/03 09:12:49;;;;;;;108.87;58.70;;;;;;;-2.75;79.51;98666.27;125761;1098;65205;-88
2020/12/03 09:15:17;;;;;;;112.30;60.63;;;;;;;-2.72;79.75;98674.88;125389;1098;65149;-88
2020/12/03 09:17:48;;;;;;;117.53;64.00;;;;;;;-2.64;80.63;98677.34;125386;1098;65133;-88
2020/12/03 09:20:15;;;;;;;110.53;60.03;;;;;;;-2.59;80.38;98666.84;125295;1098;65193;-89
2020/12/03 09:22:43;;;;;;;108.63;59.40;;;;;;;-2.55;79.52;98669.37;125235;1098;65217;-87
2020/12/03 09:25:12;;;;;;;111.27;59.00;;;;;;;-2.49;80.30;98666.63;125287;1098;65296;-86
2020/12/03 09:27:44;;;;;;;114.77;61.40;;;;;;;-2.44;80.37;98666.55;125376;1098;65191;-87
2020/12/03 09:30:26;;;;;;;123.43;64.70;;;;;;;-2.38;79.80;98661.19;125280;1098;65175;-86
2020/12/03 09:33:01;;;;;;;111.47;62.37;;;;;;;-2.31;79.20;98664.55;125380;1098;65076;-87
2020/12/03 09:35:30;;;;;;;111.27;61.50;;;;;;;-2.30;79.06;98656.67;125257;1098;65092;-87
2020/12/03 09:38:02;;;;;;;110.17;60.50;;;;;;;-2.28;79.60;98647.06;125293;1099;65153;-88
2020/12/03 09:40:31;;;;;;;109.70;60.47;;;;;;;-2.28;79.23;98646.21;124923;1100;65163;-87
2020/12/03 09:42:58;;;;;;;115.70;61.97;;;;;;;-2.26;78.55;98642.68;124976;1098;65689;-87
2020/12/03 09:45:39;;;;;;;105.95;58.85;;;;;;;-2.20;78.76;98644.30;124935;1098;65124;-88
2020/12/03 09:48:16;;;;;;;108.90;62.10;;;;;;;-2.09;79.13;98647.53;124967;1098;65269;-87
2020/12/03 09:50:44;;;;;;;110.47;63.67;;;;;;;-1.91;78.96;98650.64;125009;1100;65201;-88
2020/12/03 09:53:14;;;;;;;117.30;67.30;;;;;;;-1.82;78.79;98640.86;125288;1098;65134;-89
2020/12/03 09:55:41;;;;;;;124.45;69.20;;;;;;;-1.68;78.80;98637.92;125242;1098;65170;-89
2020/12/03 09:58:07;;;;;;;123.57;69.27;;;;;;;-1.51;78.89;98636.66;125222;1100;65133;-88
2020/12/03 10:00:39;;;;;;;120.63;69.60;;;;;;;-1.41;77.92;98639.01;124832;1098;65200;-85
2020/12/03 10:03:32;;;;;;;115.80;65.33;;;;;;;-1.37;78.47;98634.55;124810;1098;65182;-80
2020/12/03 10:06:22;;;;;;;120.00;64.77;;;;;;;-1.31;77.65;98628.34;125232;1098;65157;-83
2020/12/03 10:09:26;;;;;;;110.70;63.60;;;;;;;-1.39;77.31;98603.24;125220;1098;65150;-83
2020/12/03 10:12:15;;;;;;;111.80;61.90;;;;;;;-1.41;77.33;98605.03;125231;1098;65152;-83
2020/12/03 10:15:07;;;;;;;116.53;65.03;;;;;;;-1.56;76.86;98605.41;124852;1098;65184;-83
2020/12/03 10:21:03;;;;;;;114.47;65.20;;;;;;;-1.52;77.46;98603.59;125241;1098;65162;-83
2020/12/03 10:23:45;;;;;;;109.67;61.73;;;;;;;-1.52;77.79;98591.37;125179;1099;65370;-83
2020/12/03 10:26:11;;;;;;;118.53;66.37;;;;;;;-1.50;78.08;98602.66;125177;1098;65095;-83
2020/12/03 10:28:48;;;;;;;116.17;64.50;;;;;;;-1.50;77.71;98593.94;125286;1098;65275;-83
2020/12/03 10:31:15;;;;;;;114.30;62.90;;;;;;;-1.49;78.26;98582.61;124820;1100;65291;-83
2020/12/03 10:33:47;;;;;;;116.53;64.27;;;;;;;-1.48;77.83;98585.16;124857;1098;65188;-82
2020/12/03 10:36:34;;;;;;;115.63;66.83;;;;;;;-1.46;77.69;98577.30;125253;1098;65147;-83
2020/12/03 10:39:02;;;;;;;117.83;64.67;;;;;;;-1.47;77.70;98575.59;125262;1098;65166;-85
2020/12/03 10:41:31;;;;;;;109.83;63.90;;;;;;;-1.46;77.53;98572.92;124946;1099;65277;-86
2020/12/03 10:44:02;;;;;;;108.07;63.40;;;;;;;-1.45;77.60;98564.20;125330;1098;65129;-88
2020/12/03 10:46:37;;;;;;;119.00;66.23;;;;;;;-1.38;77.32;98562.27;125397;1098;65542;-90
2020/12/03 10:49:05;;;;;;;113.33;66.93;;;;;;;-1.35;77.64;98559.58;125258;1098;65185;-76
2020/12/03 10:51:32;;;;;;;111.63;61.60;;;;;;;-1.30;77.68;98546.40;125229;1099;65070;-79
2020/12/03 10:53:58;;;;;;;111.40;64.73;;;;;;;-1.30;76.93;98535.94;125183;1098;65317;-81
2020/12/03 11:03:17;;;;;;;115.23;64.33;;;;;;;-1.39;77.54;98537.91;125243;1098;65126;-78
2020/12/03 11:05:45;;;;;;;108.57;65.67;;;;;;;-1.41;77.11;98537.08;125277;1098;65150;-78
2020/12/03 11:08:11;;;;;;;113.07;64.67;;;;;;;-1.44;77.51;98525.86;125144;1099;65250;-78
2020/12/03 11:10:41;;;;;;;108.20;64.97;;;;;;;-1.51;77.61;98525.14;124802;1100;65182;-78
2020/12/03 11:13:08;;;;;;;115.25;65.15;;;;;;;-1.52;77.63;98533.89;125211;1098;65092;-78
2020/12/03 11:15:34;;;;;;;111.10;63.65;;;;;;;-1.52;78.03;98519.98;125171;1100;65127;-78
2020/12/03 11:18:09;;;;;;;117.67;66.20;;;;;;;-1.55;77.87;98524.38;124822;1100;65133;-78
2020/12/03 11:20:38;;;;;;;123.27;70.50;;;;;;;-1.56;77.85;98527.02;125126;1098;65223;-78
2020/12/03 11:23:08;;;;;;;120.43;70.77;;;;;;;-1.55;78.24;98528.75;125290;1098;65134;-78
2020/12/03 11:25:36;;;;;;;;;;;;;;;-1.57;78.45;98528.78;125283;1098;65146;-78
2020/12/03 11:28:28;;;;;;;118.50;71.57;;;;;;;-1.58;78.41;98514.01;125279;1098;65485;-77
2020/12/03 11:31:04;;;;;;;127.03;79.63;;;;;;;-1.61;77.94;98527.12;125240;1098;65150;-78
2020/12/03 11:33:38;;;;;;;122.37;73.63;;;;;;;-1.64;78.07;98511.53;125229;1099;65115;-77
2020/12/03 11:36:12;;;;;;;128.73;74.27;;;;;;;-1.57;78.57;98517.47;125149;1098;65117;-78
2020/12/03 11:38:42;;;;;;;121.80;69.80;;;;;;;-1.55;78.23;98519.15;125234;1098;65176;-78
2020/12/03 11:41:19;;;;;;;121.50;68.37;;;;;;;-1.51;78.31;98509.47;125173;1099;65156;-78
2020/12/03 11:49:26;;;;;;;114.00;65.67;;;;;;;-1.54;78.20;98480.81;125188;1098;65198;-78
2020/12/03 11:51:53;;;;;;;121.25;70.15;;;;;;;-1.46;79.15;98478.84;125238;1099;65124;-78
2020/12/03 11:54:27;;;;;;;120.23;72.93;;;;;;;-1.37;78.68;98468.16;124766;1098;65220;-78
2020/12/03 11:56:59;;;;;;;121.00;69.10;;;;;;;-1.36;78.65;98464.63;125244;1098;65255;-78
2020/12/03 11:59:36;;;;;;;122.73;73.70;;;;;;;-1.42;78.81;98471.77;125196;1098;65189;-79
2020/12/03 12:02:12;;;;;;;122.47;70.77;;;;;;;-1.48;78.73;98464.95;124920;1099;65182;-79
2020/12/03 12:12:15;;;;;;;122.30;67.92;;;;;;;-1.59;78.93;98465.24;124825;1098;65275;-78
2020/12/03 12:14:41;;;;;;;113.97;70.13;;;;;;;-1.62;79.03;98460.11;125285;1098;65150;-80
2020/12/03 12:17:08;;;;;;;136.27;87.07;;;;;;;-1.62;79.41;98456.64;125227;1098;65724;-78